sensor_id;sensor_type;location;lat;lon;timestamp;P1;durP1;ratioP1;P2;durP2;ratioP2
52432;SDS011;38352;53.244;6.594;2023-03-01T00:01:50;24.40;;;11.93;;
52432;SDS011;38352;53.244;6.594;2023-03-01T00:04:16;21.55;;;12.10;;
52432;SDS011;38352;53.244;6.594;2023-03-01T00:06:42;22.60;;;11.63;;
52432;SDS011;38352;53.244;6.594;2023-03-01T00:09:12;21.52;;;12.40;;
52432;SDS011;38352;53.244;6.594;2023-03-01T00:11:38;18.25;;;11.25;;
52432;SDS011;38352;53.244;6.594;2023-03-01T00:14:04;17.08;;;11.27;;
52432;SDS011;38352;53.244;6.594;2023-03-01T00:16:41;21.92;;;13.00;;
52432;SDS011;38352;53.244;6.594;2023-03-01T00:19:09;22.02;;;12.68;;
52432;SDS011;38352;53.244;6.594;2023-03-01T00:21:36;20.40;;;11.63;;
52432;SDS011;38352;53.244;6.594;2023-03-01T00:24:03;18.85;;;11.23;;
52432;SDS011;38352;53.244;6.594;2023-03-01T00:26:29;20.38;;;11.80;;
52432;SDS011;38352;53.244;6.594;2023-03-01T00:28:56;19.02;;;11.23;;
52432;SDS011;38352;53.244;6.594;2023-03-01T00:31:23;21.23;;;11.70;;
52432;SDS011;38352;53.244;6.594;2023-03-01T00:33:53;17.40;;;10.75;;
52432;SDS011;38352;53.244;6.594;2023-03-01T00:36:24;18.95;;;11.48;;
52432;SDS011;38352;53.244;6.594;2023-03-01T00:38:50;18.85;;;11.40;;
52432;SDS011;38352;53.244;6.594;2023-03-01T00:41:17;18.80;;;10.50;;
52432;SDS011;38352;53.244;6.594;2023-03-01T00:43:43;17.80;;;11.00;;
52432;SDS011;38352;53.244;6.594;2023-03-01T00:46:11;19.73;;;11.32;;
52432;SDS011;38352;53.244;6.594;2023-03-01T00:48:37;25.10;;;12.32;;
52432;SDS011;38352;53.244;6.594;2023-03-01T00:53:33;18.48;;;10.85;;
52432;SDS011;38352;53.244;6.594;2023-03-01T00:55:59;19.70;;;11.43;;
52432;SDS011;38352;53.244;6.594;2023-03-01T00:58:25;18.08;;;11.13;;
52432;SDS011;38352;53.244;6.594;2023-03-01T01:00:51;21.02;;;11.98;;
52432;SDS011;38352;53.244;6.594;2023-03-01T01:03:18;23.48;;;11.65;;
52432;SDS011;38352;53.244;6.594;2023-03-01T01:05:44;21.05;;;11.70;;
52432;SDS011;38352;53.244;6.594;2023-03-01T01:08:10;19.08;;;11.35;;
52432;SDS011;38352;53.244;6.594;2023-03-01T01:10:36;20.38;;;11.32;;
52432;SDS011;38352;53.244;6.594;2023-03-01T01:13:02;21.27;;;12.00;;
52432;SDS011;38352;53.244;6.594;2023-03-01T01:15:29;21.08;;;11.70;;
52432;SDS011;38352;53.244;6.594;2023-03-01T01:17:58;22.55;;;12.23;;
52432;SDS011;38352;53.244;6.594;2023-03-01T01:20:24;24.73;;;12.68;;
52432;SDS011;38352;53.244;6.594;2023-03-01T01:22:50;24.33;;;11.95;;
52432;SDS011;38352;53.244;6.594;2023-03-01T01:25:17;21.48;;;12.32;;
52432;SDS011;38352;53.244;6.594;2023-03-01T01:27:43;22.45;;;12.23;;
52432;SDS011;38352;53.244;6.594;2023-03-01T01:30:09;19.90;;;11.93;;
52432;SDS011;38352;53.244;6.594;2023-03-01T01:32:35;25.88;;;12.68;;
52432;SDS011;38352;53.244;6.594;2023-03-01T01:35:01;22.67;;;13.38;;
52432;SDS011;38352;53.244;6.594;2023-03-01T01:37:27;25.02;;;13.05;;
52432;SDS011;38352;53.244;6.594;2023-03-01T01:39:58;20.92;;;11.57;;
52432;SDS011;38352;53.244;6.594;2023-03-01T01:42:24;21.70;;;12.05;;
52432;SDS011;38352;53.244;6.594;2023-03-01T01:47:35;21.77;;;12.30;;
52432;SDS011;38352;53.244;6.594;2023-03-01T01:50:01;23.23;;;12.15;;
52432;SDS011;38352;53.244;6.594;2023-03-01T01:52:34;27.38;;;14.38;;
52432;SDS011;38352;53.244;6.594;2023-03-01T01:57:29;28.25;;;14.43;;
52432;SDS011;38352;53.244;6.594;2023-03-01T02:00:02;28.02;;;14.95;;
52432;SDS011;38352;53.244;6.594;2023-03-01T02:02:29;23.98;;;13.43;;
52432;SDS011;38352;53.244;6.594;2023-03-01T02:05:09;25.65;;;13.40;;
52432;SDS011;38352;53.244;6.594;2023-03-01T02:07:38;29.70;;;13.45;;
52432;SDS011;38352;53.244;6.594;2023-03-01T02:10:05;25.90;;;13.93;;
52432;SDS011;38352;53.244;6.594;2023-03-01T02:12:31;31.17;;;15.20;;
52432;SDS011;38352;53.244;6.594;2023-03-01T02:14:58;30.38;;;16.67;;
52432;SDS011;38352;53.244;6.594;2023-03-01T02:17:24;30.98;;;16.80;;
52432;SDS011;38352;53.244;6.594;2023-03-01T02:22:21;36.53;;;17.83;;
52432;SDS011;38352;53.244;6.594;2023-03-01T02:24:52;35.72;;;18.00;;
52432;SDS011;38352;53.244;6.594;2023-03-01T02:27:19;39.00;;;18.92;;
52432;SDS011;38352;53.244;6.594;2023-03-01T02:29:49;31.15;;;16.17;;
52432;SDS011;38352;53.244;6.594;2023-03-01T02:32:15;29.95;;;14.98;;
52432;SDS011;38352;53.244;6.594;2023-03-01T02:34:50;26.67;;;14.18;;
52432;SDS011;38352;53.244;6.594;2023-03-01T02:37:16;28.60;;;15.27;;
52432;SDS011;38352;53.244;6.594;2023-03-01T02:39:50;24.45;;;12.77;;
52432;SDS011;38352;53.244;6.594;2023-03-01T02:42:20;25.08;;;12.85;;
52432;SDS011;38352;53.244;6.594;2023-03-01T02:44:48;25.13;;;12.25;;
52432;SDS011;38352;53.244;6.594;2023-03-01T02:47:14;18.98;;;10.68;;
52432;SDS011;38352;53.244;6.594;2023-03-01T02:49:40;17.75;;;9.85;;
52432;SDS011;38352;53.244;6.594;2023-03-01T02:54:58;17.15;;;9.70;;
52432;SDS011;38352;53.244;6.594;2023-03-01T02:57:27;17.83;;;10.55;;
52432;SDS011;38352;53.244;6.594;2023-03-01T02:59:57;17.75;;;10.45;;
52432;SDS011;38352;53.244;6.594;2023-03-01T03:02:26;14.50;;;9.13;;
52432;SDS011;38352;53.244;6.594;2023-03-01T03:05:07;13.75;;;8.73;;
52432;SDS011;38352;53.244;6.594;2023-03-01T03:07:34;13.60;;;9.05;;
52432;SDS011;38352;53.244;6.594;2023-03-01T03:10:01;12.40;;;8.48;;
52432;SDS011;38352;53.244;6.594;2023-03-01T03:12:27;14.23;;;8.45;;
52432;SDS011;38352;53.244;6.594;2023-03-01T03:14:53;15.95;;;8.73;;
52432;SDS011;38352;53.244;6.594;2023-03-01T03:17:19;19.13;;;10.27;;
52432;SDS011;38352;53.244;6.594;2023-03-01T03:19:45;75.55;;;15.40;;
52432;SDS011;38352;53.244;6.594;2023-03-01T03:22:12;60.85;;;12.38;;
52432;SDS011;38352;53.244;6.594;2023-03-01T03:24:38;20.40;;;10.93;;
52432;SDS011;38352;53.244;6.594;2023-03-01T03:27:05;23.23;;;11.05;;
52432;SDS011;38352;53.244;6.594;2023-03-01T03:29:31;18.92;;;9.52;;
52432;SDS011;38352;53.244;6.594;2023-03-01T03:31:57;16.55;;;9.63;;
52432;SDS011;38352;53.244;6.594;2023-03-01T03:34:23;16.02;;;9.35;;
52432;SDS011;38352;53.244;6.594;2023-03-01T03:36:56;16.70;;;9.10;;
52432;SDS011;38352;53.244;6.594;2023-03-01T03:39:25;18.40;;;10.07;;
52432;SDS011;38352;53.244;6.594;2023-03-01T03:41:52;18.58;;;10.50;;
52432;SDS011;38352;53.244;6.594;2023-03-01T03:44:19;17.10;;;9.70;;
52432;SDS011;38352;53.244;6.594;2023-03-01T03:46:45;19.48;;;10.23;;
52432;SDS011;38352;53.244;6.594;2023-03-01T03:49:11;18.40;;;10.32;;
52432;SDS011;38352;53.244;6.594;2023-03-01T03:51:37;19.95;;;10.63;;
52432;SDS011;38352;53.244;6.594;2023-03-01T03:54:03;21.85;;;10.80;;
52432;SDS011;38352;53.244;6.594;2023-03-01T03:56:29;21.00;;;10.95;;
52432;SDS011;38352;53.244;6.594;2023-03-01T03:58:55;20.00;;;10.77;;
52432;SDS011;38352;53.244;6.594;2023-03-01T04:01:22;24.90;;;11.57;;
52432;SDS011;38352;53.244;6.594;2023-03-01T04:03:48;23.70;;;12.05;;
52432;SDS011;38352;53.244;6.594;2023-03-01T04:06:19;23.60;;;11.05;;
52432;SDS011;38352;53.244;6.594;2023-03-01T04:08:45;24.80;;;13.35;;
52432;SDS011;38352;53.244;6.594;2023-03-01T04:11:11;19.88;;;11.38;;
52432;SDS011;38352;53.244;6.594;2023-03-01T04:13:54;21.20;;;10.13;;
52432;SDS011;38352;53.244;6.594;2023-03-01T04:16:21;24.15;;;11.70;;
52432;SDS011;38352;53.244;6.594;2023-03-01T04:18:47;25.15;;;11.32;;
52432;SDS011;38352;53.244;6.594;2023-03-01T04:21:13;21.67;;;11.60;;
52432;SDS011;38352;53.244;6.594;2023-03-01T04:23:39;20.65;;;11.05;;
52432;SDS011;38352;53.244;6.594;2023-03-01T04:26:06;24.63;;;10.70;;
52432;SDS011;38352;53.244;6.594;2023-03-01T04:28:36;18.08;;;9.90;;
52432;SDS011;38352;53.244;6.594;2023-03-01T04:31:09;86.90;;;12.95;;
52432;SDS011;38352;53.244;6.594;2023-03-01T04:33:39;51.13;;;12.43;;
52432;SDS011;38352;53.244;6.594;2023-03-01T04:36:05;23.80;;;10.80;;
52432;SDS011;38352;53.244;6.594;2023-03-01T04:38:34;31.67;;;11.85;;
52432;SDS011;38352;53.244;6.594;2023-03-01T04:41:02;35.90;;;12.82;;
52432;SDS011;38352;53.244;6.594;2023-03-01T04:43:28;38.90;;;11.93;;
52432;SDS011;38352;53.244;6.594;2023-03-01T04:45:54;111.28;;;15.00;;
52432;SDS011;38352;53.244;6.594;2023-03-01T04:48:20;142.07;;;15.60;;
52432;SDS011;38352;53.244;6.594;2023-03-01T04:50:47;81.85;;;13.93;;
52432;SDS011;38352;53.244;6.594;2023-03-01T04:53:13;73.55;;;13.95;;
52432;SDS011;38352;53.244;6.594;2023-03-01T04:55:39;20.23;;;10.07;;
52432;SDS011;38352;53.244;6.594;2023-03-01T04:58:05;72.45;;;13.50;;
52432;SDS011;38352;53.244;6.594;2023-03-01T05:00:31;32.28;;;10.95;;
52432;SDS011;38352;53.244;6.594;2023-03-01T05:02:59;158.43;;;18.30;;
52432;SDS011;38352;53.244;6.594;2023-03-01T05:05:32;130.18;;;16.27;;
52432;SDS011;38352;53.244;6.594;2023-03-01T05:07:59;93.15;;;14.82;;
52432;SDS011;38352;53.244;6.594;2023-03-01T05:10:26;175.65;;;21.58;;
52432;SDS011;38352;53.244;6.594;2023-03-01T05:12:54;51.50;;;13.45;;
52432;SDS011;38352;53.244;6.594;2023-03-01T05:15:22;49.45;;;11.60;;
52432;SDS011;38352;53.244;6.594;2023-03-01T05:17:50;50.22;;;13.27;;
52432;SDS011;38352;53.244;6.594;2023-03-01T05:20:17;57.95;;;13.15;;
52432;SDS011;38352;53.244;6.594;2023-03-01T05:22:48;28.02;;;12.43;;
52432;SDS011;38352;53.244;6.594;2023-03-01T05:25:14;23.48;;;11.18;;
52432;SDS011;38352;53.244;6.594;2023-03-01T05:27:40;25.15;;;11.13;;
52432;SDS011;38352;53.244;6.594;2023-03-01T05:30:06;27.55;;;11.60;;
52432;SDS011;38352;53.244;6.594;2023-03-01T05:32:42;20.52;;;11.20;;
52432;SDS011;38352;53.244;6.594;2023-03-01T05:35:10;20.80;;;12.07;;
52432;SDS011;38352;53.244;6.594;2023-03-01T05:37:39;19.92;;;11.05;;
52432;SDS011;38352;53.244;6.594;2023-03-01T05:40:05;38.10;;;13.50;;
52432;SDS011;38352;53.244;6.594;2023-03-01T05:42:40;23.92;;;13.13;;
52432;SDS011;38352;53.244;6.594;2023-03-01T05:45:06;93.72;;;16.23;;
52432;SDS011;38352;53.244;6.594;2023-03-01T05:47:34;63.60;;;14.90;;
52432;SDS011;38352;53.244;6.594;2023-03-01T05:50:01;39.53;;;13.45;;
52432;SDS011;38352;53.244;6.594;2023-03-01T05:52:27;22.65;;;12.23;;
52432;SDS011;38352;53.244;6.594;2023-03-01T05:54:53;21.70;;;11.73;;
52432;SDS011;38352;53.244;6.594;2023-03-01T05:57:20;21.70;;;11.73;;
52432;SDS011;38352;53.244;6.594;2023-03-01T05:59:46;19.92;;;11.35;;
52432;SDS011;38352;53.244;6.594;2023-03-01T06:02:12;26.23;;;11.88;;
52432;SDS011;38352;53.244;6.594;2023-03-01T06:04:38;24.52;;;12.23;;
52432;SDS011;38352;53.244;6.594;2023-03-01T06:07:04;68.55;;;14.77;;
52432;SDS011;38352;53.244;6.594;2023-03-01T06:09:30;43.38;;;13.20;;
52432;SDS011;38352;53.244;6.594;2023-03-01T06:11:56;69.75;;;14.55;;
52432;SDS011;38352;53.244;6.594;2023-03-01T06:14:22;40.17;;;13.50;;
52432;SDS011;38352;53.244;6.594;2023-03-01T06:16:49;26.83;;;12.07;;
52432;SDS011;38352;53.244;6.594;2023-03-01T06:19:15;18.75;;;11.18;;
52432;SDS011;38352;53.244;6.594;2023-03-01T06:21:41;17.50;;;10.23;;
52432;SDS011;38352;53.244;6.594;2023-03-01T06:24:07;18.33;;;9.93;;
52432;SDS011;38352;53.244;6.594;2023-03-01T06:26:33;18.92;;;11.25;;
52432;SDS011;38352;53.244;6.594;2023-03-01T06:28:59;20.60;;;11.20;;
52432;SDS011;38352;53.244;6.594;2023-03-01T06:31:25;33.60;;;11.25;;
52432;SDS011;38352;53.244;6.594;2023-03-01T06:33:51;17.38;;;10.10;;
52432;SDS011;38352;53.244;6.594;2023-03-01T06:36:17;18.95;;;11.25;;
52432;SDS011;38352;53.244;6.594;2023-03-01T06:38:46;17.23;;;10.43;;
52432;SDS011;38352;53.244;6.594;2023-03-01T06:41:12;19.27;;;10.20;;
52432;SDS011;38352;53.244;6.594;2023-03-01T06:43:38;27.45;;;11.27;;
52432;SDS011;38352;53.244;6.594;2023-03-01T06:46:05;82.40;;;14.45;;
52432;SDS011;38352;53.244;6.594;2023-03-01T06:48:32;24.38;;;11.88;;
52432;SDS011;38352;53.244;6.594;2023-03-01T06:50:59;18.15;;;10.88;;
52432;SDS011;38352;53.244;6.594;2023-03-01T06:53:26;22.88;;;11.38;;
52432;SDS011;38352;53.244;6.594;2023-03-01T06:55:55;21.05;;;11.60;;
52432;SDS011;38352;53.244;6.594;2023-03-01T06:58:22;18.70;;;11.63;;
52432;SDS011;38352;53.244;6.594;2023-03-01T07:00:48;21.30;;;11.98;;
52432;SDS011;38352;53.244;6.594;2023-03-01T07:03:14;19.77;;;11.73;;
52432;SDS011;38352;53.244;6.594;2023-03-01T07:05:40;20.02;;;11.70;;
52432;SDS011;38352;53.244;6.594;2023-03-01T07:08:06;17.67;;;11.13;;
52432;SDS011;38352;53.244;6.594;2023-03-01T07:10:32;20.58;;;11.07;;
52432;SDS011;38352;53.244;6.594;2023-03-01T07:12:59;18.35;;;10.60;;
52432;SDS011;38352;53.244;6.594;2023-03-01T07:15:25;19.60;;;11.43;;
52432;SDS011;38352;53.244;6.594;2023-03-01T07:17:51;19.00;;;10.65;;
52432;SDS011;38352;53.244;6.594;2023-03-01T07:20:18;15.93;;;10.63;;
52432;SDS011;38352;53.244;6.594;2023-03-01T07:22:47;18.70;;;11.07;;
52432;SDS011;38352;53.244;6.594;2023-03-01T07:25:13;20.40;;;11.65;;
52432;SDS011;38352;53.244;6.594;2023-03-01T07:27:39;18.92;;;11.48;;
52432;SDS011;38352;53.244;6.594;2023-03-01T07:30:05;19.88;;;12.45;;
52432;SDS011;38352;53.244;6.594;2023-03-01T07:32:32;21.45;;;11.90;;
52432;SDS011;38352;53.244;6.594;2023-03-01T07:34:58;20.48;;;12.20;;
52432;SDS011;38352;53.244;6.594;2023-03-01T07:37:24;19.45;;;11.20;;
52432;SDS011;38352;53.244;6.594;2023-03-01T07:39:50;19.50;;;12.02;;
52432;SDS011;38352;53.244;6.594;2023-03-01T07:42:16;19.30;;;12.07;;
52432;SDS011;38352;53.244;6.594;2023-03-01T07:44:42;20.73;;;12.55;;
52432;SDS011;38352;53.244;6.594;2023-03-01T07:47:08;21.80;;;12.82;;
52432;SDS011;38352;53.244;6.594;2023-03-01T07:49:34;22.88;;;12.85;;
52432;SDS011;38352;53.244;6.594;2023-03-01T07:52:00;22.00;;;12.32;;
52432;SDS011;38352;53.244;6.594;2023-03-01T07:54:26;24.67;;;13.77;;
52432;SDS011;38352;53.244;6.594;2023-03-01T07:56:52;26.15;;;14.63;;
52432;SDS011;38352;53.244;6.594;2023-03-01T07:59:19;25.48;;;15.23;;
52432;SDS011;38352;53.244;6.594;2023-03-01T08:01:46;24.77;;;14.70;;
52432;SDS011;38352;53.244;6.594;2023-03-01T08:04:12;24.05;;;14.80;;
52432;SDS011;38352;53.244;6.594;2023-03-01T08:06:38;24.08;;;14.00;;
52432;SDS011;38352;53.244;6.594;2023-03-01T08:09:04;23.42;;;14.35;;
52432;SDS011;38352;53.244;6.594;2023-03-01T08:11:30;24.60;;;14.80;;
52432;SDS011;38352;53.244;6.594;2023-03-01T08:13:56;27.45;;;16.10;;
52432;SDS011;38352;53.244;6.594;2023-03-01T08:16:23;25.58;;;15.52;;
52432;SDS011;38352;53.244;6.594;2023-03-01T08:18:49;25.77;;;15.25;;
52432;SDS011;38352;53.244;6.594;2023-03-01T08:21:16;29.65;;;16.85;;
52432;SDS011;38352;53.244;6.594;2023-03-01T08:23:42;32.60;;;18.50;;
52432;SDS011;38352;53.244;6.594;2023-03-01T08:26:18;33.08;;;20.25;;
52432;SDS011;38352;53.244;6.594;2023-03-01T08:28:46;34.92;;;19.83;;
52432;SDS011;38352;53.244;6.594;2023-03-01T08:31:22;35.22;;;20.85;;
52432;SDS011;38352;53.244;6.594;2023-03-01T08:33:50;40.92;;;24.17;;
52432;SDS011;38352;53.244;6.594;2023-03-01T08:36:20;46.08;;;25.67;;
52432;SDS011;38352;53.244;6.594;2023-03-01T08:38:46;51.10;;;26.77;;
52432;SDS011;38352;53.244;6.594;2023-03-01T08:41:12;50.20;;;26.40;;
52432;SDS011;38352;53.244;6.594;2023-03-01T08:43:39;44.28;;;25.55;;
52432;SDS011;38352;53.244;6.594;2023-03-01T08:46:05;49.55;;;27.08;;
52432;SDS011;38352;53.244;6.594;2023-03-01T08:48:31;51.88;;;28.88;;
52432;SDS011;38352;53.244;6.594;2023-03-01T08:51:06;50.53;;;28.55;;
52432;SDS011;38352;53.244;6.594;2023-03-01T08:53:32;56.65;;;28.08;;
52432;SDS011;38352;53.244;6.594;2023-03-01T08:56:01;51.58;;;27.15;;
52432;SDS011;38352;53.244;6.594;2023-03-01T08:58:28;51.67;;;27.20;;
52432;SDS011;38352;53.244;6.594;2023-03-01T09:00:54;45.20;;;27.02;;
52432;SDS011;38352;53.244;6.594;2023-03-01T09:03:21;51.63;;;27.63;;
52432;SDS011;38352;53.244;6.594;2023-03-01T09:05:48;49.40;;;27.35;;
52432;SDS011;38352;53.244;6.594;2023-03-01T09:08:15;51.83;;;28.65;;
52432;SDS011;38352;53.244;6.594;2023-03-01T09:10:41;50.22;;;27.77;;
52432;SDS011;38352;53.244;6.594;2023-03-01T09:13:07;51.92;;;27.92;;
52432;SDS011;38352;53.244;6.594;2023-03-01T09:15:34;50.22;;;27.17;;
52432;SDS011;38352;53.244;6.594;2023-03-01T09:18:00;48.42;;;26.65;;
52432;SDS011;38352;53.244;6.594;2023-03-01T09:20:26;46.30;;;26.70;;
52432;SDS011;38352;53.244;6.594;2023-03-01T09:22:52;47.75;;;25.98;;
52432;SDS011;38352;53.244;6.594;2023-03-01T09:25:18;44.10;;;23.15;;
52432;SDS011;38352;53.244;6.594;2023-03-01T09:27:44;44.17;;;24.10;;
52432;SDS011;38352;53.244;6.594;2023-03-01T09:30:10;45.75;;;24.45;;
52432;SDS011;38352;53.244;6.594;2023-03-01T09:32:36;44.97;;;22.77;;
52432;SDS011;38352;53.244;6.594;2023-03-01T09:35:03;41.20;;;23.13;;
52432;SDS011;38352;53.244;6.594;2023-03-01T09:37:30;42.40;;;22.30;;
52432;SDS011;38352;53.244;6.594;2023-03-01T09:39:57;42.17;;;21.90;;
52432;SDS011;38352;53.244;6.594;2023-03-01T09:42:23;38.65;;;21.08;;
52432;SDS011;38352;53.244;6.594;2023-03-01T09:45:00;44.63;;;23.17;;
52432;SDS011;38352;53.244;6.594;2023-03-01T09:47:29;39.13;;;22.02;;
52432;SDS011;38352;53.244;6.594;2023-03-01T09:50:03;41.95;;;21.48;;
52432;SDS011;38352;53.244;6.594;2023-03-01T09:52:36;37.45;;;20.85;;
52432;SDS011;38352;53.244;6.594;2023-03-01T09:55:07;34.67;;;20.15;;
52432;SDS011;38352;53.244;6.594;2023-03-01T09:57:54;39.25;;;20.63;;
52432;SDS011;38352;53.244;6.594;2023-03-01T10:00:27;31.73;;;18.17;;
52432;SDS011;38352;53.244;6.594;2023-03-01T10:05:30;31.58;;;18.42;;
52432;SDS011;38352;53.244;6.594;2023-03-01T10:08:11;29.88;;;17.75;;
52432;SDS011;38352;53.244;6.594;2023-03-01T10:10:40;30.42;;;16.42;;
52432;SDS011;38352;53.244;6.594;2023-03-01T10:13:16;30.73;;;18.17;;
52432;SDS011;38352;53.244;6.594;2023-03-01T10:15:45;33.30;;;18.40;;
52432;SDS011;38352;53.244;6.594;2023-03-01T10:18:17;34.13;;;17.98;;
52432;SDS011;38352;53.244;6.594;2023-03-01T10:21:01;31.20;;;17.98;;
52432;SDS011;38352;53.244;6.594;2023-03-01T10:23:28;29.73;;;17.13;;
52432;SDS011;38352;53.244;6.594;2023-03-01T10:26:00;30.25;;;17.20;;
52432;SDS011;38352;53.244;6.594;2023-03-01T10:28:36;29.77;;;16.90;;
52432;SDS011;38352;53.244;6.594;2023-03-01T10:31:09;27.60;;;16.00;;
52432;SDS011;38352;53.244;6.594;2023-03-01T10:33:37;29.95;;;16.73;;
52432;SDS011;38352;53.244;6.594;2023-03-01T10:36:07;29.42;;;17.75;;
52432;SDS011;38352;53.244;6.594;2023-03-01T10:38:47;24.40;;;15.27;;
52432;SDS011;38352;53.244;6.594;2023-03-01T10:41:14;29.35;;;16.15;;
52432;SDS011;38352;53.244;6.594;2023-03-01T10:43:53;24.52;;;15.45;;
52432;SDS011;38352;53.244;6.594;2023-03-01T10:46:24;27.40;;;15.77;;
52432;SDS011;38352;53.244;6.594;2023-03-01T10:51:47;25.38;;;14.80;;
52432;SDS011;38352;53.244;6.594;2023-03-01T10:56:55;27.27;;;16.98;;
52432;SDS011;38352;53.244;6.594;2023-03-01T10:59:25;24.52;;;16.13;;
52432;SDS011;38352;53.244;6.594;2023-03-01T11:04:36;24.35;;;16.52;;
52432;SDS011;38352;53.244;6.594;2023-03-01T11:07:02;27.00;;;16.40;;
52432;SDS011;38352;53.244;6.594;2023-03-01T11:09:32;31.63;;;16.95;;
52432;SDS011;38352;53.244;6.594;2023-03-01T11:12:11;23.38;;;15.70;;
52432;SDS011;38352;53.244;6.594;2023-03-01T11:17:12;25.40;;;15.55;;
52432;SDS011;38352;53.244;6.594;2023-03-01T11:19:39;22.67;;;14.80;;
52432;SDS011;38352;53.244;6.594;2023-03-01T11:22:08;27.63;;;15.45;;
52432;SDS011;38352;53.244;6.594;2023-03-01T11:24:39;20.38;;;12.93;;
52432;SDS011;38352;53.244;6.594;2023-03-01T11:27:11;23.30;;;14.77;;
52432;SDS011;38352;53.244;6.594;2023-03-01T11:29:41;21.88;;;14.30;;
52432;SDS011;38352;53.244;6.594;2023-03-01T11:32:08;21.30;;;13.70;;
52432;SDS011;38352;53.244;6.594;2023-03-01T11:37:28;18.73;;;11.80;;
52432;SDS011;38352;53.244;6.594;2023-03-01T11:40:15;19.27;;;12.32;;
52432;SDS011;38352;53.244;6.594;2023-03-01T11:42:50;18.70;;;13.13;;
52432;SDS011;38352;53.244;6.594;2023-03-01T11:45:17;20.17;;;13.63;;
52432;SDS011;38352;53.244;6.594;2023-03-01T11:50:19;20.23;;;12.75;;
52432;SDS011;38352;53.244;6.594;2023-03-01T12:05:13;20.23;;;12.48;;
52432;SDS011;38352;53.244;6.594;2023-03-01T12:10:34;21.35;;;12.80;;
52432;SDS011;38352;53.244;6.594;2023-03-01T12:21:09;21.50;;;14.32;;
52432;SDS011;38352;53.244;6.594;2023-03-01T12:26:20;18.08;;;13.00;;
52432;SDS011;38352;53.244;6.594;2023-03-01T12:34:01;17.02;;;11.73;;
52432;SDS011;38352;53.244;6.594;2023-03-01T12:49:28;15.88;;;11.48;;
52432;SDS011;38352;53.244;6.594;2023-03-01T12:52:02;15.45;;;11.55;;
52432;SDS011;38352;53.244;6.594;2023-03-01T12:54:30;17.88;;;12.75;;
52432;SDS011;38352;53.244;6.594;2023-03-01T12:57:05;16.75;;;11.38;;
52432;SDS011;38352;53.244;6.594;2023-03-01T13:02:24;15.70;;;11.75;;
52432;SDS011;38352;53.244;6.594;2023-03-01T13:07:40;13.30;;;10.07;;
52432;SDS011;38352;53.244;6.594;2023-03-01T13:10:20;15.90;;;11.27;;
52432;SDS011;38352;53.244;6.594;2023-03-01T13:17:49;16.83;;;12.80;;
52432;SDS011;38352;53.244;6.594;2023-03-01T13:20:17;15.38;;;11.80;;
52432;SDS011;38352;53.244;6.594;2023-03-01T13:22:44;18.83;;;12.07;;
52432;SDS011;38352;53.244;6.594;2023-03-01T13:25:15;18.17;;;12.48;;
52432;SDS011;38352;53.244;6.594;2023-03-01T13:27:43;18.63;;;13.82;;
52432;SDS011;38352;53.244;6.594;2023-03-01T13:33:06;17.15;;;12.23;;
52432;SDS011;38352;53.244;6.594;2023-03-01T13:35:41;19.98;;;14.73;;
52432;SDS011;38352;53.244;6.594;2023-03-01T13:41:01;15.93;;;12.07;;
52432;SDS011;38352;53.244;6.594;2023-03-01T13:43:35;18.88;;;12.55;;
52432;SDS011;38352;53.244;6.594;2023-03-01T13:46:02;15.75;;;11.23;;
52432;SDS011;38352;53.244;6.594;2023-03-01T13:48:33;16.63;;;11.23;;
52432;SDS011;38352;53.244;6.594;2023-03-01T13:51:03;13.45;;;9.77;;
52432;SDS011;38352;53.244;6.594;2023-03-01T13:53:31;15.27;;;10.80;;
52432;SDS011;38352;53.244;6.594;2023-03-01T13:56:19;13.50;;;11.18;;
52432;SDS011;38352;53.244;6.594;2023-03-01T13:58:47;16.25;;;12.93;;
52432;SDS011;38352;53.244;6.594;2023-03-01T14:01:21;15.35;;;11.18;;
52432;SDS011;38352;53.244;6.594;2023-03-01T14:03:47;13.65;;;10.82;;
52432;SDS011;38352;53.244;6.594;2023-03-01T14:06:18;14.63;;;10.75;;
52432;SDS011;38352;53.244;6.594;2023-03-01T14:08:45;15.52;;;11.52;;
52432;SDS011;38352;53.244;6.594;2023-03-01T14:21:30;14.65;;;10.82;;
52432;SDS011;38352;53.244;6.594;2023-03-01T14:23:57;12.75;;;10.15;;
52432;SDS011;38352;53.244;6.594;2023-03-01T14:26:24;14.60;;;11.15;;
52432;SDS011;38352;53.244;6.594;2023-03-01T14:28:50;17.33;;;11.93;;
52432;SDS011;38352;53.244;6.594;2023-03-01T14:33:55;16.27;;;11.65;;
52432;SDS011;38352;53.244;6.594;2023-03-01T14:36:25;15.32;;;11.23;;
52432;SDS011;38352;53.244;6.594;2023-03-01T14:38:52;15.32;;;11.57;;
52432;SDS011;38352;53.244;6.594;2023-03-01T14:41:20;15.43;;;11.23;;
52432;SDS011;38352;53.244;6.594;2023-03-01T14:43:47;16.15;;;11.65;;
52432;SDS011;38352;53.244;6.594;2023-03-01T14:46:25;14.68;;;10.93;;
52432;SDS011;38352;53.244;6.594;2023-03-01T14:48:53;14.98;;;12.05;;
52432;SDS011;38352;53.244;6.594;2023-03-01T14:51:20;14.32;;;10.93;;
52432;SDS011;38352;53.244;6.594;2023-03-01T14:53:46;16.83;;;11.35;;
52432;SDS011;38352;53.244;6.594;2023-03-01T14:56:13;16.23;;;11.60;;
52432;SDS011;38352;53.244;6.594;2023-03-01T14:58:39;17.02;;;12.30;;
52432;SDS011;38352;53.244;6.594;2023-03-01T15:01:05;16.98;;;11.85;;
52432;SDS011;38352;53.244;6.594;2023-03-01T15:03:37;16.83;;;11.27;;
52432;SDS011;38352;53.244;6.594;2023-03-01T15:06:06;19.30;;;12.90;;
52432;SDS011;38352;53.244;6.594;2023-03-01T15:08:33;19.35;;;13.07;;
52432;SDS011;38352;53.244;6.594;2023-03-01T15:11:04;19.13;;;12.75;;
52432;SDS011;38352;53.244;6.594;2023-03-01T15:13:34;16.55;;;11.68;;
52432;SDS011;38352;53.244;6.594;2023-03-01T15:16:01;19.33;;;12.45;;
52432;SDS011;38352;53.244;6.594;2023-03-01T15:18:29;18.23;;;12.45;;
52432;SDS011;38352;53.244;6.594;2023-03-01T15:20:55;22.90;;;13.27;;
52432;SDS011;38352;53.244;6.594;2023-03-01T15:23:28;18.70;;;12.95;;
52432;SDS011;38352;53.244;6.594;2023-03-01T15:25:55;22.70;;;12.73;;
52432;SDS011;38352;53.244;6.594;2023-03-01T15:28:22;17.23;;;11.73;;
52432;SDS011;38352;53.244;6.594;2023-03-01T15:30:53;19.13;;;12.30;;
52432;SDS011;38352;53.244;6.594;2023-03-01T15:33:30;17.35;;;12.25;;
52432;SDS011;38352;53.244;6.594;2023-03-01T15:36:31;16.77;;;10.90;;
52432;SDS011;38352;53.244;6.594;2023-03-01T15:38:50;16.48;;;10.73;;
52432;SDS011;38352;53.244;6.594;2023-03-01T15:41:24;22.35;;;11.77;;
52432;SDS011;38352;53.244;6.594;2023-03-01T15:43:50;19.70;;;11.60;;
52432;SDS011;38352;53.244;6.594;2023-03-01T15:46:33;21.08;;;12.02;;
52432;SDS011;38352;53.244;6.594;2023-03-01T15:49:01;17.40;;;11.13;;
52432;SDS011;38352;53.244;6.594;2023-03-01T15:51:29;20.67;;;11.90;;
52432;SDS011;38352;53.244;6.594;2023-03-01T15:53:55;20.13;;;11.80;;
52432;SDS011;38352;53.244;6.594;2023-03-01T15:56:23;16.55;;;11.70;;
52432;SDS011;38352;53.244;6.594;2023-03-01T15:58:49;17.90;;;11.77;;
52432;SDS011;38352;53.244;6.594;2023-03-01T16:01:16;20.30;;;13.55;;
52432;SDS011;38352;53.244;6.594;2023-03-01T16:03:43;21.65;;;12.63;;
52432;SDS011;38352;53.244;6.594;2023-03-01T16:06:09;20.33;;;12.50;;
52432;SDS011;38352;53.244;6.594;2023-03-01T16:08:36;17.90;;;11.77;;
52432;SDS011;38352;53.244;6.594;2023-03-01T16:11:03;19.30;;;12.38;;
52432;SDS011;38352;53.244;6.594;2023-03-01T16:13:31;21.85;;;12.75;;